createdAt,value
2018-10-21T00:00:57.899Z,26.53
2018-10-21T00:03:39.854Z,24.33
2018-10-21T00:06:21.745Z,25.70
2018-10-21T00:09:06.267Z,25.37
2018-10-21T00:11:47.984Z,26.87
2018-10-21T00:14:31.253Z,25.77
2018-10-21T00:17:13.126Z,24.60
2018-10-21T00:19:55.764Z,27.27
2018-10-21T00:22:38.569Z,25.97
2018-10-21T00:25:20.641Z,25.07
2018-10-21T00:28:02.316Z,24.80
2018-10-21T00:30:44.282Z,24.27
2018-10-21T00:33:26.643Z,26.37
2018-10-21T00:36:08.748Z,25.63
2018-10-21T00:38:50.844Z,25.23
2018-10-21T00:41:33.132Z,25.30
2018-10-21T00:44:15.131Z,28.73
2018-10-21T00:46:57.206Z,25.10
2018-10-21T00:49:39.334Z,25.40
2018-10-21T00:52:21.480Z,25.73
2018-10-21T00:55:04.488Z,25.17
2018-10-21T00:57:46.153Z,26.00
2018-10-21T01:00:27.423Z,28.20
2018-10-21T01:03:09.621Z,28.60
2018-10-21T01:05:52.044Z,26.87
2018-10-21T01:08:34.160Z,26.60
2018-10-21T01:11:15.916Z,26.77
2018-10-21T01:13:58.260Z,28.13
2018-10-21T01:16:39.972Z,27.87
2018-10-21T01:19:22.964Z,24.80
2018-10-21T01:22:05.261Z,29.47
2018-10-21T01:24:47.685Z,27.77
2018-10-21T01:27:31.043Z,29.47
2018-10-21T01:30:13.620Z,28.90
2018-10-21T01:32:55.428Z,27.67
2018-10-21T01:35:39.741Z,26.73
2018-10-21T01:38:21.458Z,25.63
2018-10-21T01:41:03.048Z,27.80
2018-10-21T01:43:45.137Z,28.87
2018-10-21T01:46:27.755Z,31.17
2018-10-21T01:49:09.831Z,28.30
2018-10-21T01:51:51.945Z,29.03
2018-10-21T01:54:34.248Z,29.57
2018-10-21T01:57:15.708Z,26.50
2018-10-21T01:59:57.613Z,27.37
2018-10-21T02:02:39.608Z,28.90
2018-10-21T02:05:21.890Z,28.63
2018-10-21T02:08:04.487Z,27.47
2018-10-21T02:10:46.136Z,27.67
2018-10-21T02:13:27.721Z,28.30
2018-10-21T02:16:10.127Z,24.53
2018-10-21T02:18:51.890Z,25.10
2018-10-21T02:21:33.199Z,25.07
2018-10-21T02:24:15.762Z,27.03
2018-10-21T02:26:57.933Z,25.27
2018-10-21T02:29:39.564Z,27.77
2018-10-21T02:32:21.717Z,28.13
2018-10-21T02:35:03.818Z,26.83
2018-10-21T02:37:45.403Z,25.13
2018-10-21T02:41:44.850Z,24.93
2018-10-21T02:44:26.909Z,27.40
2018-10-21T02:47:09.577Z,28.87
2018-10-21T02:49:51.956Z,29.20
2018-10-21T02:52:33.753Z,28.30
2018-10-21T02:55:16.657Z,27.97
2018-10-21T02:57:58.501Z,27.47
2018-10-21T03:00:40.965Z,28.73
2018-10-21T03:03:22.887Z,30.67
2018-10-21T03:06:05.294Z,30.70
2018-10-21T03:08:47.469Z,28.97
2018-10-21T03:11:30.597Z,30.47
2018-10-21T03:14:12.908Z,31.13
2018-10-21T03:16:55.007Z,28.93
2018-10-21T03:19:37.194Z,30.87
2018-10-21T03:22:18.661Z,26.53
2018-10-21T03:25:00.761Z,29.17
2018-10-21T03:27:43.912Z,26.67
2018-10-21T03:30:25.606Z,30.63
2018-10-21T03:33:07.467Z,27.90
2018-10-21T03:35:50.221Z,26.17
2018-10-21T03:38:32.710Z,27.30
2018-10-21T03:41:15.225Z,29.73
2018-10-21T03:43:58.643Z,29.60
2018-10-21T03:46:40.402Z,27.53
2018-10-21T03:49:22.213Z,27.83
2018-10-21T03:52:05.614Z,27.53
2018-10-21T03:54:47.552Z,29.10
2018-10-21T03:57:29.284Z,28.97
2018-10-21T04:00:11.865Z,29.03
2018-10-21T04:02:54.235Z,29.10
2018-10-21T04:05:35.835Z,28.33
2018-10-21T04:08:18.161Z,30.23
2018-10-21T04:10:59.858Z,29.80
2018-10-21T04:13:41.969Z,27.13
2018-10-21T04:16:24.045Z,30.93
2018-10-21T04:19:05.228Z,28.97
2018-10-21T04:21:47.139Z,28.27
2018-10-21T04:24:29.134Z,29.73
2018-10-21T04:27:11.782Z,25.13
2018-10-21T04:29:54.173Z,26.90
2018-10-21T04:32:39.052Z,27.73
2018-10-21T04:35:22.187Z,26.97
2018-10-21T04:38:16.159Z,27.33
2018-10-21T04:40:58.363Z,29.03
2018-10-21T04:43:40.322Z,31.73
2018-10-21T04:46:24.503Z,30.60
2018-10-21T04:49:07.017Z,28.67
2018-10-21T04:51:50.009Z,28.27
2018-10-21T04:54:35.253Z,25.80
2018-10-21T04:57:17.721Z,29.93
2018-10-21T05:00:00.090Z,28.70
2018-10-21T05:02:43.309Z,30.53
2018-10-21T05:05:25.109Z,30.83
2018-10-21T05:08:06.652Z,28.77
2018-10-21T05:10:49.654Z,28.50
2018-10-21T05:13:31.721Z,31.70
2018-10-21T05:16:14.868Z,31.47
2018-10-21T05:18:57.284Z,30.73
2018-10-21T05:21:39.344Z,30.03
2018-10-21T05:24:22.072Z,28.20
2018-10-21T05:27:09.026Z,30.30
2018-10-21T05:29:50.873Z,28.20
2018-10-21T05:32:33.797Z,28.37
2018-10-21T05:35:18.049Z,28.53
2018-10-21T05:38:01.216Z,26.60
2018-10-21T05:40:43.446Z,27.93
2018-10-21T05:43:26.203Z,28.70
2018-10-21T05:46:08.629Z,32.27
2018-10-21T05:48:51.142Z,30.27
2018-10-21T05:51:33.344Z,29.53
2018-10-21T05:54:16.875Z,28.37
2018-10-21T05:56:59.271Z,28.53
2018-10-21T05:59:42.404Z,28.87
2018-10-21T06:02:24.028Z,28.97
2018-10-21T06:05:11.109Z,26.30
2018-10-21T06:07:53.738Z,24.90
2018-10-21T06:10:36.033Z,26.30
2018-10-21T06:13:19.159Z,31.00
2018-10-21T06:16:01.430Z,29.20
2018-10-21T06:18:43.644Z,29.03
2018-10-21T06:21:26.900Z,29.37
2018-10-21T06:24:10.025Z,29.37
2018-10-21T06:26:52.019Z,28.53
2018-10-21T06:29:36.160Z,27.07
2018-10-21T06:32:18.671Z,27.10
2018-10-21T06:35:01.482Z,26.07
2018-10-21T06:37:44.305Z,26.60
2018-10-21T06:40:26.509Z,25.60
2018-10-21T06:43:08.709Z,28.50
2018-10-21T06:45:52.551Z,25.43
2018-10-21T06:48:35.044Z,27.17
2018-10-21T06:51:17.570Z,27.03
2018-10-21T06:54:00.388Z,29.50
2018-10-21T06:56:43.035Z,28.33
2018-10-21T06:59:24.590Z,28.80
2018-10-21T07:02:06.639Z,27.97
2018-10-21T07:04:49.260Z,26.87
2018-10-21T07:07:31.196Z,26.73
2018-10-21T07:10:13.679Z,26.67
2018-10-21T07:12:55.359Z,25.43
2018-10-21T07:15:37.713Z,26.10
2018-10-21T07:18:20.806Z,23.50
2018-10-21T07:21:04.968Z,22.23
2018-10-21T07:23:47.614Z,22.90
2018-10-21T07:26:30.090Z,24.10
2018-10-21T07:29:12.815Z,24.27
2018-10-21T07:31:59.121Z,22.23
2018-10-21T07:34:44.801Z,23.93
2018-10-21T07:37:29.412Z,22.30
2018-10-21T07:40:12.217Z,20.37
2018-10-21T07:42:54.250Z,21.73
2018-10-21T07:45:36.779Z,19.57
2018-10-21T07:48:19.269Z,20.17
2018-10-21T07:51:01.560Z,19.30
2018-10-21T07:53:43.495Z,19.63
2018-10-21T07:56:25.143Z,17.87
2018-10-21T07:59:07.373Z,20.37
2018-10-21T08:01:49.351Z,19.20
2018-10-21T08:04:31.158Z,18.33
2018-10-21T08:07:25.050Z,17.60
2018-10-21T08:10:07.674Z,17.63
2018-10-21T08:12:50.037Z,18.23
2018-10-21T08:15:33.258Z,17.13
2018-10-21T08:18:15.510Z,18.13
2018-10-21T08:20:57.953Z,17.63
2018-10-21T08:23:40.813Z,20.00
2018-10-21T08:26:23.628Z,17.30
2018-10-21T08:29:05.917Z,19.10
2018-10-21T08:31:47.603Z,18.10
2018-10-21T08:34:29.805Z,17.80
2018-10-21T08:37:11.085Z,17.53
2018-10-21T08:39:54.354Z,16.70
2018-10-21T08:42:36.456Z,18.90
2018-10-21T08:45:18.538Z,17.67
2018-10-21T08:48:01.454Z,18.70
2018-10-21T08:50:43.229Z,17.60
2018-10-21T08:53:24.917Z,17.90
2018-10-21T08:56:08.072Z,17.50
2018-10-21T08:58:50.484Z,18.00
2018-10-21T09:01:32.792Z,17.03
2018-10-21T09:04:15.798Z,19.97
2018-10-21T09:06:58.400Z,18.00
2018-10-21T09:09:40.609Z,18.23
2018-10-21T09:12:23.143Z,17.80
2018-10-21T09:15:05.565Z,17.60
2018-10-21T09:17:47.626Z,16.20
2018-10-21T09:20:30.021Z,17.13
2018-10-21T09:23:11.806Z,16.80
2018-10-21T09:25:54.404Z,16.20
2018-10-21T09:28:36.318Z,16.07
2018-10-21T09:31:18.658Z,15.83
2018-10-21T09:34:01.273Z,15.90
2018-10-21T09:36:44.258Z,15.93
2018-10-21T09:39:26.048Z,13.83
2018-10-21T09:42:07.598Z,15.50
2018-10-21T09:44:49.497Z,13.40
2018-10-21T09:47:30.854Z,15.17
2018-10-21T09:50:13.867Z,14.47
2018-10-21T09:52:56.389Z,14.80
2018-10-21T09:55:38.794Z,14.97
2018-10-21T09:58:22.099Z,15.63
2018-10-21T10:01:09.187Z,15.30
2018-10-21T10:03:51.789Z,15.90
2018-10-21T10:06:34.092Z,15.73
2018-10-21T10:09:16.233Z,15.87
2018-10-21T10:11:58.173Z,16.70
2018-10-21T10:14:40.463Z,16.93
2018-10-21T10:17:22.980Z,16.77
2018-10-21T10:20:08.789Z,17.00
2018-10-21T10:22:51.568Z,18.77
2018-10-21T10:25:33.827Z,18.87
2018-10-21T10:28:15.718Z,17.47
2018-10-21T10:30:57.904Z,18.07
2018-10-21T10:33:39.829Z,18.60
2018-10-21T10:36:27.604Z,17.47
2018-10-21T10:39:15.974Z,16.47
2018-10-21T10:41:57.673Z,16.90
2018-10-21T10:44:40.614Z,18.23
2018-10-21T10:47:22.269Z,17.33
2018-10-21T10:50:04.137Z,16.67
2018-10-21T10:52:46.897Z,17.13
2018-10-21T10:55:35.004Z,18.13
2018-10-21T10:58:17.682Z,17.33
2018-10-21T11:01:00.169Z,17.40
2018-10-21T11:03:42.599Z,15.73
2018-10-21T11:06:25.813Z,15.53
2018-10-21T11:09:10.270Z,15.83
2018-10-21T11:11:52.334Z,15.03
2018-10-21T11:14:35.233Z,14.80
2018-10-21T11:17:18.359Z,15.67
2018-10-21T11:19:59.985Z,15.40
2018-10-21T11:22:41.632Z,16.50
2018-10-21T11:25:24.542Z,14.80
2018-10-21T11:28:08.018Z,15.40
2018-10-21T11:30:50.382Z,15.70
2018-10-21T11:33:32.444Z,14.17
2018-10-21T11:36:14.248Z,13.70
2018-10-21T11:38:56.296Z,14.00
2018-10-21T11:41:38.587Z,12.57
2018-10-21T11:44:20.556Z,10.93
2018-10-21T11:47:02.661Z,11.13
2018-10-21T11:49:45.638Z,10.00
2018-10-21T11:52:28.006Z,10.03
2018-10-21T11:55:10.483Z,8.23
2018-10-21T11:57:53.278Z,7.83
2018-10-21T12:00:35.353Z,7.50
2018-10-21T12:03:17.788Z,8.70
2018-10-21T12:06:01.014Z,8.50
2018-10-21T12:08:43.217Z,7.90
2018-10-21T12:11:26.724Z,9.30
2018-10-21T12:14:09.785Z,8.37
2018-10-21T12:16:51.513Z,8.10
2018-10-21T12:19:34.413Z,8.20
2018-10-21T12:22:19.074Z,9.27
2018-10-21T12:25:02.521Z,7.03
2018-10-21T12:27:45.150Z,6.47
2018-10-21T12:30:26.847Z,7.23
2018-10-21T12:33:12.846Z,6.83
2018-10-21T12:35:55.149Z,8.00
2018-10-21T12:38:37.982Z,5.20
2018-10-21T12:41:19.825Z,4.67
2018-10-21T12:44:01.326Z,5.37
2018-10-21T12:46:45.394Z,5.30
2018-10-21T12:49:27.689Z,6.33
2018-10-21T12:52:09.105Z,5.97
2018-10-21T12:54:53.384Z,4.20
2018-10-21T12:57:36.346Z,4.20
2018-10-21T13:00:18.479Z,3.23
2018-10-21T13:03:00.434Z,3.53
2018-10-21T13:05:42.473Z,3.40
2018-10-21T13:08:23.724Z,3.50
2018-10-21T13:11:05.933Z,3.27
2018-10-21T13:13:48.295Z,3.30
2018-10-21T13:16:31.882Z,3.23
2018-10-21T13:19:14.034Z,3.17
2018-10-21T13:21:56.085Z,3.47
2018-10-21T13:24:38.334Z,3.50
2018-10-21T13:27:20.480Z,3.47
2018-10-21T13:30:02.718Z,3.20
2018-10-21T13:32:45.593Z,3.47
2018-10-21T13:35:28.288Z,3.20
2018-10-21T13:38:10.938Z,3.33
2018-10-21T13:40:53.698Z,3.17
2018-10-21T13:43:36.633Z,3.63
2018-10-21T13:46:20.242Z,3.03
2018-10-21T13:49:03.828Z,3.87
2018-10-21T13:51:47.697Z,3.97
2018-10-21T13:54:31.460Z,3.50
2018-10-21T13:57:13.948Z,3.77
2018-10-21T13:59:56.936Z,3.63
2018-10-21T14:02:39.975Z,3.90
2018-10-21T14:05:22.701Z,4.70
2018-10-21T14:08:04.855Z,3.63
2018-10-21T14:10:52.058Z,4.13
2018-10-21T14:13:36.883Z,4.00
2018-10-21T14:16:20.323Z,3.67
2018-10-21T14:19:02.529Z,4.10
2018-10-21T14:21:46.709Z,3.87
2018-10-21T14:24:28.588Z,3.63
2018-10-21T14:27:11.088Z,4.10
2018-10-21T14:29:54.100Z,3.97
2018-10-21T14:32:37.666Z,3.27
2018-10-21T14:35:20.744Z,3.90
2018-10-21T14:38:03.987Z,3.70
2018-10-21T14:40:47.951Z,3.93
2018-10-21T14:43:29.570Z,3.90
2018-10-21T14:46:12.172Z,4.30
2018-10-21T14:48:53.697Z,4.60
2018-10-21T14:51:35.261Z,5.23
2018-10-21T14:54:17.817Z,4.30
2018-10-21T14:56:59.603Z,4.63
2018-10-21T14:59:42.720Z,4.70
2018-10-21T15:02:26.021Z,5.10
2018-10-21T15:05:10.096Z,4.37
2018-10-21T15:07:52.758Z,4.83
2018-10-21T15:10:35.828Z,3.70
2018-10-21T15:13:18.247Z,4.37
2018-10-21T15:16:00.884Z,4.97
2018-10-21T15:18:45.108Z,4.43
2018-10-21T15:21:28.030Z,4.60
2018-10-21T15:24:10.371Z,4.10
2018-10-21T15:26:52.379Z,5.37
2018-10-21T15:29:33.737Z,4.50
2018-10-21T15:32:15.315Z,5.63
2018-10-21T15:34:57.718Z,4.97
2018-10-21T15:37:39.952Z,5.93
2018-10-21T15:40:22.180Z,5.47
2018-10-21T15:43:04.414Z,5.80
2018-10-21T15:45:48.007Z,5.00
2018-10-21T15:48:29.901Z,4.60
2018-10-21T15:51:12.509Z,4.90
2018-10-21T15:53:55.271Z,3.90
2018-10-21T15:56:37.233Z,5.40
2018-10-21T15:59:19.756Z,5.10
2018-10-21T16:02:01.926Z,5.50
2018-10-21T16:04:44.615Z,4.20
2018-10-21T16:07:26.773Z,4.90
2018-10-21T16:10:09.739Z,4.70
2018-10-21T16:12:52.801Z,5.00
2018-10-21T16:15:34.732Z,4.93
2018-10-21T16:18:17.838Z,5.50
2018-10-21T16:21:00.275Z,6.40
2018-10-21T16:23:42.276Z,6.03
2018-10-21T16:26:24.049Z,11.43
2018-10-21T16:29:05.836Z,8.00
2018-10-21T16:31:48.680Z,7.20
2018-10-21T16:34:30.651Z,7.80
2018-10-21T16:37:15.481Z,7.80
2018-10-21T16:40:00.711Z,7.77
2018-10-21T16:42:42.714Z,7.53
2018-10-21T16:45:25.897Z,7.20
2018-10-21T16:48:08.209Z,7.47
2018-10-21T16:50:49.960Z,8.23
2018-10-21T16:53:32.358Z,7.57
2018-10-21T16:56:14.969Z,7.70
2018-10-21T16:58:56.739Z,7.10
2018-10-21T17:01:39.329Z,6.67
2018-10-21T17:04:23.634Z,7.17
2018-10-21T17:07:07.404Z,9.33
2018-10-21T17:09:50.708Z,6.73
2018-10-21T17:12:32.953Z,7.13
2018-10-21T17:15:15.197Z,7.03
2018-10-21T17:17:57.681Z,6.73
2018-10-21T17:20:40.702Z,7.63
2018-10-21T17:23:22.306Z,7.30
2018-10-21T17:26:04.034Z,7.00
2018-10-21T17:28:45.749Z,6.70
2018-10-21T17:31:28.905Z,7.53
2018-10-21T17:34:10.810Z,7.77
2018-10-21T17:36:55.388Z,8.63
2018-10-21T17:39:39.421Z,9.47
2018-10-21T17:42:23.049Z,9.50
2018-10-21T17:45:06.266Z,8.70
2018-10-21T17:47:48.384Z,8.90
2018-10-21T17:50:31.084Z,10.87
2018-10-21T17:53:12.640Z,11.43
2018-10-21T17:55:54.136Z,10.80
2018-10-21T17:58:36.836Z,10.47
2018-10-21T18:01:19.210Z,11.10
2018-10-21T18:04:00.807Z,11.90
2018-10-21T18:06:44.248Z,11.47
2018-10-21T18:09:26.218Z,12.17
2018-10-21T18:12:20.904Z,12.17
2018-10-21T18:15:04.181Z,12.00
2018-10-21T18:18:01.506Z,12.90
2018-10-21T18:20:45.765Z,15.07
2018-10-21T18:23:28.458Z,15.10
2018-10-21T18:26:10.604Z,14.87
2018-10-21T18:28:52.860Z,14.53
2018-10-21T18:31:35.172Z,14.37
2018-10-21T18:34:19.035Z,14.07
2018-10-21T18:37:01.426Z,14.40
2018-10-21T18:39:46.397Z,14.17
2018-10-21T18:42:29.648Z,14.30
2018-10-21T18:45:13.757Z,15.53
2018-10-21T18:47:55.369Z,14.90
2018-10-21T18:50:36.997Z,16.03
2018-10-21T18:53:20.070Z,16.40
2018-10-21T18:56:02.278Z,16.77
2018-10-21T18:58:44.602Z,15.23
2018-10-21T19:01:26.585Z,15.00
2018-10-21T19:04:11.127Z,16.20
2018-10-21T19:06:52.845Z,15.00
2018-10-21T19:09:34.979Z,14.77
2018-10-21T19:12:16.610Z,13.57
2018-10-21T19:14:58.899Z,13.07
2018-10-21T19:17:41.515Z,13.33
2018-10-21T19:20:24.438Z,12.87
2018-10-21T19:23:06.133Z,12.43
2018-10-21T19:25:49.049Z,13.77
2018-10-21T19:28:32.293Z,13.97
2018-10-21T19:31:14.553Z,15.10
2018-10-21T19:33:57.241Z,15.67
2018-10-21T19:36:40.622Z,16.20
2018-10-21T19:39:23.250Z,17.73
2018-10-21T19:42:07.589Z,17.20
2018-10-21T19:44:51.020Z,17.60
2018-10-21T19:47:33.224Z,17.53
2018-10-21T19:50:16.412Z,18.83
2018-10-21T19:52:59.254Z,19.33
2018-10-21T19:55:41.567Z,18.13
2018-10-21T19:58:24.805Z,18.73
2018-10-21T20:01:07.869Z,19.30
2018-10-21T20:03:49.722Z,18.43
2018-10-21T20:06:31.801Z,18.30
2018-10-21T20:09:14.730Z,17.97
2018-10-21T20:11:57.132Z,17.83
2018-10-21T20:14:39.481Z,17.07
2018-10-21T20:17:21.448Z,16.60
2018-10-21T20:20:03.457Z,17.37
2018-10-21T20:22:45.935Z,17.17
2018-10-21T20:25:28.447Z,18.33
2018-10-21T20:28:11.030Z,18.57
2018-10-21T20:30:53.290Z,17.67
2018-10-21T20:33:35.791Z,16.23
2018-10-21T20:36:17.596Z,17.67
2018-10-21T20:38:59.097Z,16.77
2018-10-21T20:41:40.951Z,17.20
2018-10-21T20:44:23.034Z,17.77
2018-10-21T20:47:05.001Z,16.63
2018-10-21T20:49:46.840Z,17.50
2018-10-21T20:52:29.283Z,17.87
2018-10-21T20:55:11.343Z,17.70
2018-10-21T20:57:54.267Z,17.57
2018-10-21T21:00:36.456Z,17.10
2018-10-21T21:03:18.716Z,17.43
2018-10-21T21:06:01.028Z,16.83
2018-10-21T21:08:43.491Z,16.90
2018-10-21T21:11:25.588Z,18.50
2018-10-21T21:14:08.305Z,18.40
2018-10-21T21:16:50.414Z,19.43
2018-10-21T21:19:33.439Z,19.97
2018-10-21T21:22:15.412Z,21.13
2018-10-21T21:24:58.218Z,17.50
2018-10-21T21:27:41.034Z,17.00
2018-10-21T21:30:23.567Z,17.00
2018-10-21T21:33:06.734Z,17.37
2018-10-21T21:35:48.370Z,17.83
2018-10-21T21:38:30.097Z,17.03
2018-10-21T21:41:11.838Z,15.53
2018-10-21T21:43:54.250Z,15.50
2018-10-21T21:46:35.732Z,16.60
2018-10-21T21:49:17.635Z,15.67
2018-10-21T21:51:59.815Z,16.43
2018-10-21T21:54:41.304Z,18.10
2018-10-21T21:57:23.681Z,16.70
2018-10-21T22:00:08.549Z,15.33
2018-10-21T22:02:51.320Z,16.17
2018-10-21T22:05:33.283Z,16.43
2018-10-21T22:08:14.485Z,15.43
2018-10-21T22:10:56.174Z,15.67
2018-10-21T22:13:37.673Z,16.30
2018-10-21T22:16:19.353Z,15.47
2018-10-21T22:19:02.293Z,15.53
2018-10-21T22:21:44.151Z,15.00
2018-10-21T22:24:25.777Z,15.33
2018-10-21T22:27:07.438Z,15.30
2018-10-21T22:29:49.370Z,15.87
2018-10-21T22:32:32.193Z,15.40
2018-10-21T22:35:14.389Z,14.47
2018-10-21T22:37:56.230Z,14.60
2018-10-21T22:40:39.220Z,13.90
2018-10-21T22:43:21.197Z,14.30
2018-10-21T22:46:03.121Z,14.80
2018-10-21T22:48:45.110Z,14.37
2018-10-21T22:51:26.893Z,14.10
2018-10-21T22:54:08.787Z,15.43
2018-10-21T22:56:51.425Z,15.17
2018-10-21T22:59:33.882Z,14.40
2018-10-21T23:02:15.997Z,14.93
2018-10-21T23:04:58.313Z,14.73
2018-10-21T23:07:40.409Z,14.90
2018-10-21T23:10:24.060Z,15.13
2018-10-21T23:13:05.918Z,15.17
2018-10-21T23:15:48.127Z,14.40
2018-10-21T23:18:30.127Z,14.33
2018-10-21T23:21:12.738Z,14.33
2018-10-21T23:23:55.843Z,14.60
2018-10-21T23:26:37.347Z,15.07
2018-10-21T23:29:18.870Z,14.73
2018-10-21T23:32:00.933Z,15.03
2018-10-21T23:34:42.873Z,14.67
2018-10-21T23:41:11.076Z,14.33
2018-10-21T23:43:53.223Z,13.73
2018-10-21T23:46:36.032Z,13.93
2018-10-21T23:49:18.456Z,15.00
2018-10-21T23:52:01.658Z,15.63
2018-10-21T23:54:44.575Z,13.57
2018-10-21T23:57:27.872Z,15.13
